createdAt,value
2018-05-12T00:02:19.968Z,20.55
2018-05-12T00:04:55.767Z,19.83
2018-05-12T00:07:30.423Z,22.57
2018-05-12T00:10:06.121Z,19.33
2018-05-12T00:12:41.391Z,20.97
2018-05-12T00:15:17.045Z,21.97
2018-05-12T00:17:51.936Z,21.27
2018-05-12T00:20:26.712Z,21.00
2018-05-12T00:23:01.910Z,21.08
2018-05-12T00:25:37.622Z,20.67
2018-05-12T00:28:13.272Z,20.40
2018-05-12T00:30:48.014Z,23.27
2018-05-12T00:33:23.142Z,20.63
2018-05-12T00:35:57.669Z,21.23
2018-05-12T00:38:32.764Z,20.63
2018-05-12T00:41:07.399Z,21.10
2018-05-12T00:43:42.093Z,21.73
2018-05-12T00:46:17.483Z,21.87
2018-05-12T00:48:52.615Z,20.93
2018-05-12T00:51:29.393Z,22.93
2018-05-12T00:54:04.175Z,24.60
2018-05-12T00:56:39.467Z,22.33
2018-05-12T00:59:14.330Z,22.30
2018-05-12T01:01:49.586Z,22.10
2018-05-12T01:04:24.463Z,22.63
2018-05-12T01:06:59.592Z,21.43
2018-05-12T01:09:34.749Z,22.57
2018-05-12T01:12:09.206Z,22.37
2018-05-12T01:14:44.397Z,21.95
2018-05-12T01:17:19.592Z,22.10
2018-05-12T01:19:55.470Z,22.27
2018-05-12T01:22:30.406Z,22.50
2018-05-12T01:25:05.885Z,22.53
2018-05-12T01:27:40.777Z,23.43
2018-05-12T01:30:16.150Z,23.45
2018-05-12T01:32:51.625Z,24.10
2018-05-12T01:35:26.337Z,22.37
2018-05-12T01:38:01.575Z,21.53
2018-05-12T01:40:37.624Z,22.52
2018-05-12T01:43:12.578Z,22.47
2018-05-12T01:45:47.856Z,21.98
2018-05-12T01:48:23.220Z,22.00
2018-05-12T01:50:58.177Z,22.27
2018-05-12T01:53:32.911Z,20.93
2018-05-12T01:56:07.941Z,21.37
2018-05-12T01:58:42.345Z,20.53
2018-05-12T02:01:16.797Z,25.30
2018-05-12T02:03:52.296Z,21.87
2018-05-12T02:06:27.379Z,21.60
2018-05-12T02:09:02.413Z,22.07
2018-05-12T02:11:37.830Z,22.83
2018-05-12T02:14:12.513Z,21.80
2018-05-12T02:16:47.750Z,22.77
2018-05-12T02:19:22.562Z,22.60
2018-05-12T02:21:57.700Z,20.43
2018-05-12T02:24:32.402Z,23.97
2018-05-12T02:27:07.457Z,21.60
2018-05-12T02:29:42.748Z,23.90
2018-05-12T02:32:17.746Z,22.20
2018-05-12T02:34:52.784Z,22.00
2018-05-12T02:37:27.698Z,21.17
2018-05-12T02:40:02.578Z,22.70
2018-05-12T02:42:37.863Z,22.07
2018-05-12T02:45:13.023Z,21.23
2018-05-12T02:47:47.861Z,22.35
2018-05-12T02:50:23.513Z,21.90
2018-05-12T02:52:57.797Z,23.50
2018-05-12T02:55:33.090Z,21.97
2018-05-12T02:58:08.505Z,23.50
2018-05-12T03:00:43.410Z,23.23
2018-05-12T03:03:18.605Z,23.00
2018-05-12T03:05:53.818Z,22.37
2018-05-12T03:08:28.653Z,25.70
2018-05-12T03:11:03.126Z,21.60
2018-05-12T03:13:38.162Z,23.03
2018-05-12T03:16:13.046Z,24.73
2018-05-12T03:18:47.654Z,22.47
2018-05-12T03:21:22.953Z,25.10
2018-05-12T03:23:58.028Z,21.50
2018-05-12T03:26:33.178Z,23.37
2018-05-12T03:29:08.731Z,22.00
2018-05-12T03:31:43.873Z,26.83
2018-05-12T03:34:18.774Z,21.00
2018-05-12T03:36:53.914Z,22.27
2018-05-12T03:39:28.925Z,28.23
2018-05-12T03:42:03.454Z,23.87
2018-05-12T03:44:38.778Z,23.60
2018-05-12T03:47:13.838Z,22.53
2018-05-12T03:49:49.124Z,23.58
2018-05-12T03:52:23.815Z,23.03
2018-05-12T03:54:59.082Z,23.70
2018-05-12T03:57:34.127Z,23.80
2018-05-12T04:00:09.771Z,22.73
2018-05-12T04:02:44.686Z,23.53
2018-05-12T04:05:30.863Z,23.77
2018-05-12T04:08:17.373Z,23.07
2018-05-12T04:24:27.610Z,23.20
2018-05-12T04:27:02.801Z,25.00
2018-05-12T04:29:38.302Z,22.00
2018-05-12T04:32:13.497Z,23.30
2018-05-12T04:34:48.817Z,24.30
2018-05-12T04:37:23.865Z,23.73
2018-05-12T04:39:58.846Z,21.23
2018-05-12T04:42:33.843Z,22.90
2018-05-12T04:45:08.829Z,23.73
2018-05-12T04:47:44.049Z,20.58
2018-05-12T04:50:19.454Z,21.80
2018-05-12T04:52:54.281Z,22.70
2018-05-12T04:55:29.125Z,22.03
2018-05-12T04:58:03.977Z,20.83
2018-05-12T05:00:38.779Z,21.63
2018-05-12T05:03:14.142Z,21.13
2018-05-12T05:05:49.273Z,22.42
2018-05-12T05:08:24.123Z,23.47
2018-05-12T05:10:59.109Z,21.60
2018-05-12T05:13:33.844Z,21.63
2018-05-12T05:16:08.832Z,21.20
2018-05-12T05:18:44.050Z,20.90
2018-05-12T05:21:18.924Z,21.27
2018-05-12T05:23:55.025Z,20.37
2018-05-12T05:26:29.974Z,21.75
2018-05-12T05:29:04.189Z,21.23
2018-05-12T05:31:38.908Z,20.30
2018-05-12T05:34:13.810Z,21.30
2018-05-12T05:36:48.419Z,20.20
2018-05-12T05:39:23.807Z,20.67
2018-05-12T05:41:58.454Z,21.47
2018-05-12T05:44:33.294Z,21.83
2018-05-12T05:47:08.106Z,20.77
2018-05-12T05:49:43.218Z,19.67
2018-05-12T05:52:17.946Z,21.33
2018-05-12T05:54:52.916Z,20.70
2018-05-12T05:57:27.991Z,20.67
2018-05-12T06:00:02.978Z,21.90
2018-05-12T06:02:38.614Z,21.30
2018-05-12T06:05:13.866Z,21.17
2018-05-12T06:07:49.046Z,21.52
2018-05-12T06:10:24.032Z,20.67
2018-05-12T06:12:58.922Z,19.83
2018-05-12T06:15:34.534Z,22.40
2018-05-12T06:18:09.517Z,21.20
2018-05-12T06:20:44.302Z,20.70
2018-05-12T06:23:19.389Z,24.20
2018-05-12T06:25:54.356Z,22.30
2018-05-12T06:28:29.393Z,20.93
2018-05-12T06:31:04.169Z,21.73
2018-05-12T06:33:39.216Z,19.43
2018-05-12T06:36:14.036Z,20.00
2018-05-12T06:38:49.237Z,19.03
2018-05-12T06:41:24.197Z,18.93
2018-05-12T06:43:59.080Z,18.90
2018-05-12T06:46:34.158Z,19.50
2018-05-12T06:49:09.202Z,16.83
2018-05-12T06:51:44.318Z,19.20
2018-05-12T06:54:19.082Z,18.57
2018-05-12T06:56:54.162Z,19.27
2018-05-12T06:59:29.225Z,17.37
2018-05-12T07:02:03.778Z,16.67
2018-05-12T07:04:39.075Z,16.08
2018-05-12T07:07:14.116Z,15.48
2018-05-12T07:09:49.173Z,15.90
2018-05-12T07:12:23.698Z,14.17
2018-05-12T07:14:58.458Z,16.33
2018-05-12T07:17:33.475Z,15.17
2018-05-12T07:20:07.966Z,12.20
2018-05-12T07:22:43.534Z,15.93
2018-05-12T07:25:18.313Z,18.20
2018-05-12T07:27:53.166Z,16.23
2018-05-12T07:30:28.192Z,16.30
2018-05-12T07:33:03.306Z,16.40
2018-05-12T07:35:38.584Z,15.10
2018-05-12T07:38:14.234Z,13.87
2018-05-12T07:40:49.269Z,16.07
2018-05-12T07:43:23.919Z,14.60
2018-05-12T07:45:58.825Z,15.97
2018-05-12T07:48:33.674Z,14.30
2018-05-12T07:51:08.801Z,17.15
2018-05-12T07:53:44.364Z,16.12
2018-05-12T07:56:19.311Z,16.40
2018-05-12T07:58:54.400Z,15.77
2018-05-12T08:01:29.497Z,14.50
2018-05-12T08:04:04.394Z,13.87
2018-05-12T08:06:39.670Z,14.83
2018-05-12T08:09:14.403Z,15.07
2018-05-12T08:11:49.554Z,14.85
2018-05-12T08:14:24.418Z,15.27
2018-05-12T08:16:59.378Z,15.60
2018-05-12T08:19:34.093Z,14.80
2018-05-12T08:22:08.777Z,16.40
2018-05-12T08:24:43.630Z,15.47
2018-05-12T08:27:18.790Z,14.33
2018-05-12T08:29:53.688Z,14.70
2018-05-12T08:32:29.046Z,15.50
2018-05-12T08:35:03.868Z,15.20
2018-05-12T08:37:38.809Z,15.17
2018-05-12T08:40:13.731Z,14.10
2018-05-12T08:42:48.636Z,15.00
2018-05-12T08:45:23.480Z,14.07
2018-05-12T08:47:58.366Z,13.33
2018-05-12T08:50:33.545Z,12.43
2018-05-12T08:53:08.194Z,13.50
2018-05-12T08:55:43.541Z,11.73
2018-05-12T08:58:18.418Z,13.93
2018-05-12T09:00:53.649Z,13.50
2018-05-12T09:03:28.722Z,13.20
2018-05-12T09:06:03.636Z,12.50
2018-05-12T09:08:38.759Z,12.60
2018-05-12T09:11:13.894Z,13.00
2018-05-12T09:13:48.985Z,15.07
2018-05-12T09:16:24.025Z,12.83
2018-05-12T09:18:59.441Z,11.83
2018-05-12T09:21:34.435Z,12.47
2018-05-12T09:24:09.446Z,13.20
2018-05-12T09:26:45.526Z,12.70
2018-05-12T09:29:20.603Z,12.37
2018-05-12T09:31:55.508Z,13.05
2018-05-12T09:34:30.512Z,12.48
2018-05-12T09:37:05.577Z,10.10
2018-05-12T09:39:40.693Z,9.87
2018-05-12T09:42:15.580Z,12.30
2018-05-12T09:44:50.610Z,11.80
2018-05-12T09:47:25.220Z,10.07
2018-05-12T09:50:00.562Z,11.63
2018-05-12T09:52:35.465Z,10.18
2018-05-12T09:55:09.978Z,12.30
2018-05-12T09:57:44.791Z,12.10
2018-05-12T10:00:26.333Z,12.70
2018-05-12T10:03:00.863Z,10.40
2018-05-12T10:05:35.786Z,10.40
2018-05-12T10:08:10.664Z,12.17
2018-05-12T10:10:45.676Z,12.95
2018-05-12T10:13:21.168Z,11.55
2018-05-12T10:15:55.654Z,12.13
2018-05-12T10:18:31.043Z,9.87
2018-05-12T10:21:05.633Z,10.63
2018-05-12T10:23:40.825Z,10.27
2018-05-12T10:26:15.725Z,10.17
2018-05-12T10:28:50.586Z,11.53
2018-05-12T10:31:25.689Z,10.13
2018-05-12T10:34:00.567Z,10.00
2018-05-12T10:36:35.677Z,11.53
2018-05-12T10:39:10.690Z,10.87
2018-05-12T10:41:45.254Z,11.23
2018-05-12T10:44:20.297Z,9.63
2018-05-12T10:46:55.233Z,9.80
2018-05-12T10:49:30.612Z,9.17
2018-05-12T10:52:05.282Z,11.48
2018-05-12T10:54:40.222Z,8.73
2018-05-12T10:57:15.106Z,13.57
2018-05-12T10:59:50.029Z,11.10
2018-05-12T11:02:25.074Z,11.83
2018-05-12T11:05:00.290Z,12.30
2018-05-12T11:07:35.762Z,11.50
2018-05-12T11:10:10.636Z,9.88
2018-05-12T11:12:45.230Z,8.07
2018-05-12T11:15:20.017Z,8.13
2018-05-12T11:17:55.258Z,8.70
2018-05-12T11:32:33.166Z,4.83
2018-05-12T11:35:08.275Z,4.20
2018-05-12T11:37:43.353Z,6.22
2018-05-12T11:40:18.357Z,5.37
2018-05-12T11:42:53.402Z,5.45
2018-05-12T11:45:28.265Z,8.03
2018-05-12T11:48:03.733Z,6.00
2018-05-12T11:50:39.166Z,7.23
2018-05-12T11:53:13.902Z,7.73
2018-05-12T11:55:49.106Z,6.45
2018-05-12T11:58:23.957Z,7.70
2018-05-12T12:00:59.462Z,7.70
2018-05-12T12:03:34.818Z,9.43
2018-05-12T12:06:09.418Z,9.77
2018-05-12T12:08:44.159Z,8.27
2018-05-12T12:11:19.414Z,9.50
2018-05-12T12:13:54.324Z,7.27
2018-05-12T12:16:29.896Z,10.10
2018-05-12T12:19:04.894Z,9.60
2018-05-12T12:21:39.618Z,8.93
2018-05-12T12:24:14.405Z,9.03
2018-05-12T12:26:49.423Z,11.40
2018-05-12T12:29:24.446Z,12.47
2018-05-12T12:31:59.286Z,10.43
2018-05-12T12:34:34.218Z,8.07
2018-05-12T12:37:09.176Z,9.70
2018-05-12T12:39:44.469Z,9.50
2018-05-12T12:42:19.034Z,10.60
2018-05-12T12:44:54.194Z,12.43
2018-05-12T12:47:28.949Z,10.17
2018-05-12T12:50:03.756Z,9.30
2018-05-12T12:52:39.274Z,9.23
2018-05-12T12:55:13.620Z,12.17
2018-05-12T12:57:49.231Z,10.73
2018-05-12T13:00:23.646Z,11.00
2018-05-12T13:02:58.479Z,10.60
2018-05-12T13:05:33.521Z,13.40
2018-05-12T13:08:08.514Z,11.07
2018-05-12T13:10:43.488Z,7.68
2018-05-12T13:13:18.238Z,9.37
2018-05-12T13:15:53.364Z,10.27
2018-05-12T13:18:28.093Z,11.07
2018-05-12T13:21:03.034Z,10.50
2018-05-12T13:23:39.345Z,13.18
2018-05-12T13:26:14.098Z,13.33
2018-05-12T13:28:49.169Z,11.37
2018-05-12T13:31:23.955Z,11.10
2018-05-12T13:33:59.117Z,12.53
2018-05-12T13:36:34.122Z,12.97
2018-05-12T13:39:08.550Z,12.40
2018-05-12T13:43:40.698Z,9.60
2018-05-12T13:46:15.732Z,12.37
2018-05-12T13:48:50.208Z,13.27
2018-05-12T13:51:25.079Z,11.53
2018-05-12T13:54:00.114Z,12.00
2018-05-12T13:56:35.121Z,13.20
2018-05-12T13:59:09.994Z,12.10
2018-05-12T14:01:46.018Z,10.57
2018-05-12T14:04:20.650Z,11.73
2018-05-12T14:06:56.072Z,12.20
2018-05-12T14:09:31.327Z,11.07
2018-05-12T14:12:06.526Z,11.40
2018-05-12T14:14:41.150Z,12.57
2018-05-12T14:17:16.421Z,11.60
2018-05-12T14:19:51.845Z,11.50
2018-05-12T14:22:27.208Z,11.00
2018-05-12T14:25:02.318Z,11.90
2018-05-12T14:27:37.470Z,11.63
2018-05-12T14:30:12.151Z,10.70
2018-05-12T14:32:47.498Z,10.88
2018-05-12T14:35:23.197Z,13.77
2018-05-12T14:37:58.169Z,12.10
2018-05-12T14:56:30.442Z,13.77
2018-05-12T14:59:05.302Z,14.40
2018-05-12T15:01:39.680Z,15.93
2018-05-12T15:04:14.994Z,14.37
2018-05-12T15:06:49.766Z,13.40
2018-05-12T15:09:25.179Z,12.60
2018-05-12T15:12:00.445Z,12.67
2018-05-12T15:14:35.290Z,12.83
2018-05-12T15:17:10.374Z,13.73
2018-05-12T15:19:45.543Z,11.98
2018-05-12T15:22:20.586Z,13.50
2018-05-12T15:24:55.826Z,15.63
2018-05-12T15:27:31.316Z,11.63
2018-05-12T15:30:06.414Z,14.97
2018-05-12T15:32:41.706Z,14.53
2018-05-12T15:35:17.349Z,13.70
2018-05-12T15:37:52.130Z,13.50
2018-05-12T15:40:27.509Z,12.90
2018-05-12T15:43:02.715Z,14.00
2018-05-12T15:45:37.665Z,12.73
2018-05-12T15:48:12.894Z,14.30
2018-05-12T15:50:47.836Z,14.73
2018-05-12T15:53:22.653Z,14.70
2018-05-12T15:55:57.701Z,14.03
2018-05-12T15:58:32.837Z,14.23
2018-05-12T16:01:08.302Z,13.00
2018-05-12T16:03:43.717Z,13.60
2018-05-12T16:06:18.555Z,14.93
2018-05-12T16:08:53.678Z,15.40
2018-05-12T16:11:28.741Z,15.70
2018-05-12T16:14:03.351Z,17.63
2018-05-12T16:16:39.838Z,18.10
2018-05-12T16:19:15.466Z,14.68
2018-05-12T16:21:50.616Z,15.77
2018-05-12T16:24:25.638Z,16.63
2018-05-12T16:27:00.523Z,15.30
2018-05-12T16:29:35.538Z,19.27
2018-05-12T16:32:10.443Z,19.50
2018-05-12T16:34:45.802Z,17.17
2018-05-12T16:37:20.796Z,18.40
2018-05-12T16:39:55.750Z,18.33
2018-05-12T16:42:31.050Z,18.63
2018-05-12T16:45:06.223Z,18.27
2018-05-12T16:47:41.794Z,18.77
2018-05-12T16:50:16.650Z,20.37
2018-05-12T16:52:51.970Z,18.60
2018-05-12T16:55:27.523Z,19.93
2018-05-12T16:58:01.390Z,20.47
2018-05-12T17:00:35.828Z,22.27
2018-05-12T17:03:10.894Z,23.93
2018-05-12T17:05:46.089Z,21.73
2018-05-12T17:08:21.183Z,22.50
2018-05-12T17:10:55.976Z,22.67
2018-05-12T17:13:31.199Z,21.70
2018-05-12T17:16:06.062Z,23.47
2018-05-12T17:18:41.382Z,22.53
2018-05-12T17:21:16.573Z,23.10
2018-05-12T17:23:51.738Z,23.63
2018-05-12T17:26:26.746Z,24.07
2018-05-12T17:29:02.010Z,23.90
2018-05-12T17:31:37.165Z,23.80
2018-05-12T17:34:12.704Z,21.70
2018-05-12T17:36:47.954Z,23.50
2018-05-12T17:39:23.271Z,23.80
2018-05-12T17:41:58.070Z,22.83
2018-05-12T17:44:32.973Z,25.67
2018-05-12T17:47:08.310Z,25.17
2018-05-12T17:49:43.038Z,25.37
2018-05-12T17:52:17.702Z,25.20
2018-05-12T17:54:53.143Z,26.10
2018-05-12T17:57:28.293Z,25.73
2018-05-12T18:00:03.066Z,26.53
2018-05-12T18:02:38.435Z,25.43
2018-05-12T18:05:13.022Z,24.43
2018-05-12T18:07:47.864Z,24.33
2018-05-12T18:10:22.798Z,25.20
2018-05-12T18:12:57.872Z,26.83
2018-05-12T18:15:32.674Z,24.97
2018-05-12T18:18:07.766Z,23.90
2018-05-12T18:20:42.765Z,24.00
2018-05-12T18:23:17.530Z,25.60
2018-05-12T18:25:52.401Z,22.20
2018-05-12T18:28:27.754Z,23.37
2018-05-12T18:31:02.668Z,22.20
2018-05-12T18:33:37.904Z,23.57
2018-05-12T18:36:12.905Z,20.80
2018-05-12T18:38:48.017Z,21.93
2018-05-12T18:41:23.193Z,21.47
2018-05-12T18:43:58.321Z,21.30
2018-05-12T18:46:33.813Z,21.27
2018-05-12T18:49:08.802Z,20.63
2018-05-12T18:51:44.242Z,19.37
2018-05-12T18:54:18.876Z,21.07
2018-05-12T18:56:54.140Z,22.27
2018-05-12T18:59:28.881Z,21.00
2018-05-12T19:02:03.591Z,22.67
2018-05-12T19:04:40.132Z,20.45
2018-05-12T19:07:14.932Z,17.73
2018-05-12T19:09:49.840Z,21.85
2018-05-12T19:12:24.800Z,20.03
2018-05-12T19:14:59.909Z,22.13
2018-05-12T19:17:34.810Z,18.35
2018-05-12T19:20:09.577Z,21.83
2018-05-12T19:22:45.078Z,18.30
2018-05-12T19:25:19.920Z,18.77
2018-05-12T19:27:54.606Z,21.00
2018-05-12T19:30:30.011Z,20.03
2018-05-12T19:33:04.766Z,18.73
2018-05-12T19:35:40.306Z,20.20
2018-05-12T19:38:15.834Z,22.40
2018-05-12T19:40:51.072Z,21.23
2018-05-12T19:43:25.882Z,22.20
2018-05-12T19:46:00.886Z,20.27
2018-05-12T19:48:36.058Z,18.80
2018-05-12T19:51:11.476Z,24.23
2018-05-12T19:53:46.150Z,22.30
2018-05-12T19:56:21.150Z,22.20
2018-05-12T19:58:55.604Z,21.10
2018-05-12T20:01:30.329Z,21.60
2018-05-12T20:04:04.921Z,25.43
2018-05-12T20:06:40.304Z,22.80
2018-05-12T20:09:15.085Z,22.70
2018-05-12T20:11:50.087Z,23.40
2018-05-12T20:14:24.964Z,21.77
2018-05-12T20:17:00.068Z,21.40
2018-05-12T20:19:35.058Z,19.03
2018-05-12T20:22:10.082Z,19.87
2018-05-12T20:24:45.382Z,20.90
2018-05-12T20:27:19.999Z,21.53
2018-05-12T20:29:55.171Z,21.65
2018-05-12T20:32:30.078Z,21.20
2018-05-12T20:35:04.605Z,20.80
2018-05-12T20:37:40.398Z,19.67
2018-05-12T20:40:15.754Z,19.17
2018-05-12T20:42:50.514Z,21.35
2018-05-12T20:45:25.438Z,22.07
2018-05-12T20:48:00.208Z,18.37
2018-05-12T20:50:35.064Z,20.33
2018-05-12T20:53:10.226Z,24.13
2018-05-12T20:55:45.614Z,21.10
2018-05-12T20:58:21.148Z,20.40
2018-05-12T21:00:56.504Z,20.00
2018-05-12T21:03:31.554Z,20.40
2018-05-12T21:06:07.141Z,20.25
2018-05-12T21:08:42.440Z,18.93
2018-05-12T21:11:17.266Z,20.37
2018-05-12T21:13:51.744Z,19.73
2018-05-12T21:16:26.333Z,18.63
2018-05-12T21:19:01.048Z,19.27
2018-05-12T21:21:36.419Z,18.67
2018-05-12T21:24:11.865Z,20.90
2018-05-12T21:26:47.169Z,17.80
2018-05-12T21:29:21.931Z,18.60
2018-05-12T21:31:57.247Z,19.40
2018-05-12T21:34:32.188Z,19.37
2018-05-12T21:37:07.093Z,19.23
2018-05-12T21:39:41.900Z,18.47
2018-05-12T21:42:16.502Z,18.00
2018-05-12T21:44:51.822Z,17.83
2018-05-12T21:47:27.299Z,17.10
2018-05-12T21:50:02.214Z,17.90
2018-05-12T21:52:37.326Z,21.53
2018-05-12T21:55:12.357Z,20.00
2018-05-12T21:57:47.501Z,20.77
2018-05-12T22:00:22.238Z,17.57
2018-05-12T22:02:57.286Z,18.62
2018-05-12T22:05:32.302Z,19.63
2018-05-12T22:08:07.330Z,18.13
2018-05-12T22:10:42.594Z,22.93
2018-05-12T22:13:17.476Z,20.67
2018-05-12T22:15:52.758Z,22.83
2018-05-12T22:18:27.707Z,19.60
2018-05-12T22:21:03.248Z,18.37
2018-05-12T22:23:38.485Z,21.00
2018-05-12T22:26:13.298Z,21.77
2018-05-12T22:28:49.261Z,21.55
2018-05-12T22:31:24.481Z,20.03
2018-05-12T22:33:59.498Z,20.80
2018-05-12T22:36:34.577Z,19.73
2018-05-12T22:39:09.496Z,22.37
2018-05-12T22:41:44.927Z,19.67
2018-05-12T22:44:20.315Z,19.20
2018-05-12T22:46:55.159Z,21.73
2018-05-12T22:49:30.536Z,22.43
2018-05-12T22:52:05.615Z,20.80
2018-05-12T22:54:40.889Z,20.70
2018-05-12T22:57:15.353Z,20.10
2018-05-12T22:59:50.474Z,23.93
2018-05-12T23:02:25.537Z,22.00
2018-05-12T23:05:00.801Z,20.13
2018-05-12T23:07:35.552Z,20.77
2018-05-12T23:10:10.606Z,20.17
2018-05-12T23:12:45.939Z,20.37
2018-05-12T23:15:20.952Z,24.67
2018-05-12T23:17:56.106Z,22.80
2018-05-12T23:20:30.994Z,26.43
2018-05-12T23:23:06.442Z,21.40
2018-05-12T23:25:40.991Z,22.50
2018-05-12T23:28:16.605Z,25.00
2018-05-12T23:30:51.937Z,23.47
2018-05-12T23:33:26.777Z,24.30
2018-05-12T23:36:01.853Z,21.17
2018-05-12T23:38:36.782Z,26.47
2018-05-12T23:41:11.984Z,22.20
2018-05-12T23:43:46.753Z,25.42
2018-05-12T23:46:21.616Z,21.27
2018-05-12T23:48:56.826Z,23.20
2018-05-12T23:51:31.892Z,26.30
2018-05-12T23:54:07.622Z,23.73
2018-05-12T23:56:42.537Z,21.25
2018-05-12T23:59:17.614Z,23.90
